Time;durP1;ratioP1;P1;durP2;ratioP2;P2;SDS_P1;SDS_P2;PMS_P1;PMS_P2;Temp;Humidity;BMP_temperature;BMP_pressure;BME280_temperature;BME280_humidity;BME280_pressure;Samples;Min_cycle;Max_cycle;Signal;HPM_P1;HPM_P2
2022/01/14 00:01:46;;;;;;;7.33;2.73;;;-5.00;99.90;;;;;;2212569;64;20093;-38
2022/01/14 00:04:13;;;;;;;12.23;3.07;;;-5.00;99.90;;;;;;2212946;64;20565;-43
2022/01/14 00:06:40;;;;;;;11.67;4.97;;;-5.00;99.90;;;;;;2215966;64;20160;-37
2022/01/14 00:09:10;;;;;;;7.43;3.00;;;-4.90;99.90;;;;;;2216067;64;20085;-40
2022/01/14 00:11:52;;;;;;;7.93;2.77;;;-4.90;99.90;;;;;;2213125;64;20107;-40
2022/01/14 00:16:47;;;;;;;7.10;2.87;;;-4.90;99.90;;;;;;2210255;64;20561;-37
2022/01/14 00:19:14;;;;;;;10.93;3.80;;;-4.90;99.90;;;;;;2213460;64;20150;-38
2022/01/14 00:21:42;;;;;;;6.10;2.50;;;-5.00;99.90;;;;;;2213549;64;20089;-38
2022/01/14 00:31:37;;;;;;;7.93;3.70;;;-5.20;99.90;;;;;;2210361;64;20081;-34
2022/01/14 00:33:16;;;;;;;4.88;1.65;;;-5.60;99.90;;;;;;2213535;64;20152;-37
2022/01/14 00:35:19;;;;;;;6.47;2.47;;;-5.60;99.90;;;;;;2209473;64;20591;-37
2022/01/14 00:37:46;;;;;;;7.47;2.23;;;-5.80;99.90;;;;;;2210369;64;20097;-34
2022/01/14 00:40:13;;;;;;;6.40;2.40;;;-5.90;99.90;;;;;;2213363;64;20107;-38
2022/01/14 00:42:40;;;;;;;3.77;1.50;;;-6.00;99.90;;;;;;2216670;64;20089;-36
2022/01/14 00:45:08;;;;;;;3.90;1.70;;;-6.20;99.90;;;;;;2213570;64;20085;-44
2022/01/14 00:47:37;;;;;;;3.23;1.37;;;-6.30;99.90;;;;;;2213298;64;20227;-39
2022/01/14 00:50:07;;;;;;;6.07;2.40;;;-6.40;99.90;;;;;;2216370;64;20111;-42
2022/01/14 00:52:35;;;;;;;6.67;1.57;;;-6.60;99.90;;;;;;2216603;64;20097;-39
2022/01/14 00:55:02;;;;;;;3.30;1.67;;;-6.80;99.90;;;;;;2213440;64;20085;-46
2022/01/14 01:00:17;;;;;;;2.77;1.20;;;-7.00;99.90;;;;;;2206989;64;20150;-42
2022/01/14 01:02:44;;;;;;;4.40;0.93;;;-7.10;99.90;;;;;;2216435;64;20089;-43
2022/01/14 01:05:13;;;;;;;1.37;0.70;;;-7.20;99.90;;;;;;2213392;64;20089;-41
2022/01/14 01:07:44;;;;;;;6.80;1.43;;;-7.30;99.90;;;;;;2213395;64;20092;-40
2022/01/14 01:10:11;;;;;;;2.23;1.47;;;-7.50;99.90;;;;;;2216558;64;20093;-40
2022/01/14 01:12:54;;;;;;;4.33;1.23;;;-7.60;99.90;;;;;;2216596;64;20103;-41
2022/01/14 01:15:21;;;;;;;3.53;1.47;;;-7.60;99.90;;;;;;2216295;64;20101;-39
2022/01/14 01:17:48;;;;;;;4.63;1.97;;;-7.70;99.90;;;;;;2213429;64;20081;-42
2022/01/14 01:20:18;;;;;;;3.27;1.33;;;-7.90;99.90;;;;;;2213300;64;20089;-37
2022/01/14 01:22:49;;;;;;;2.87;1.10;;;-8.00;99.90;;;;;;2216345;64;20097;-35
2022/01/14 01:25:19;;;;;;;4.63;2.03;;;-8.10;99.90;;;;;;2214283;64;20642;-37
2022/01/14 01:27:48;;;;;;;3.50;1.30;;;-8.20;99.90;;;;;;2216942;64;20492;-41
2022/01/14 01:30:26;;;;;;;5.50;1.40;;;-8.30;99.90;;;;;;2217063;64;20084;-40
2022/01/14 01:32:53;;;;;;;4.27;2.10;;;-8.40;99.90;;;;;;2216898;64;20108;-37
2022/01/14 01:35:20;;;;;;;2.80;1.40;;;-8.50;99.90;;;;;;2217188;64;20205;-39
2022/01/14 01:37:47;;;;;;;5.07;1.40;;;-8.50;99.90;;;;;;2217047;64;20092;-41
2022/01/14 01:40:14;;;;;;;5.23;1.67;;;-8.60;99.90;;;;;;2217164;64;20108;-38
2022/01/14 01:42:43;;;;;;;3.90;1.33;;;-8.60;99.90;;;;;;2217097;64;20545;-36
2022/01/14 01:45:11;;;;;;;3.30;1.47;;;-8.80;99.90;;;;;;2217013;64;20077;-36
2022/01/14 01:47:39;;;;;;;3.10;1.57;;;-8.90;99.90;;;;;;2217148;64;20097;-37
2022/01/14 01:50:13;;;;;;;5.03;1.53;;;-9.00;99.90;;;;;;2216874;64;20182;-38
2022/01/14 01:52:40;;;;;;;5.40;1.67;;;-9.10;99.90;;;;;;2217128;64;20080;-37
2022/01/14 01:55:07;;;;;;;8.50;2.90;;;-9.20;99.90;;;;;;2216906;64;20115;-38
2022/01/14 01:57:34;;;;;;;8.70;3.40;;;-9.30;99.90;;;;;;2217200;64;20104;-37
2022/01/14 02:00:05;;;;;;;5.97;3.13;;;-9.40;99.90;;;;;;2217011;64;20198;-36
2022/01/14 02:02:31;;;;;;;5.73;2.63;;;-9.50;99.90;;;;;;2217202;64;20084;-37
2022/01/14 02:04:59;;;;;;;7.50;2.33;;;-9.50;99.90;;;;;;2213740;64;20531;-35
2022/01/14 02:07:25;;;;;;;7.67;3.20;;;-9.60;99.90;;;;;;2216779;64;20139;-36
2022/01/14 02:09:52;;;;;;;4.50;2.73;;;-9.70;99.90;;;;;;2213888;64;20080;-37
2022/01/14 02:12:20;;;;;;;5.60;2.70;;;-9.90;99.90;;;;;;2216891;64;20088;-36
2022/01/14 02:15:06;;;;;;;4.57;1.67;;;-9.90;99.90;;;;;;2216761;64;20527;-35
2022/01/14 02:17:47;;;;;;;4.63;2.37;;;-10.00;99.90;;;;;;2214356;64;20081;-35
2022/01/14 02:23:02;;;;;;;6.13;2.83;;;-10.00;99.90;;;;;;2216770;64;20097;-34
2022/01/14 02:25:30;;;;;;;7.93;3.60;;;-10.00;99.90;;;;;;2215322;64;20536;-39
2022/01/14 02:28:06;;;;;;;5.97;2.77;;;-10.00;99.90;;;;;;2209717;64;20097;-37
2022/01/14 02:30:34;;;;;;;9.47;3.17;;;-10.00;99.90;;;;;;2213059;64;20477;-37
2022/01/14 02:33:01;;;;;;;3.50;1.50;;;-10.00;99.90;;;;;;2213140;64;20092;-37
2022/01/14 02:35:28;;;;;;;9.40;4.23;;;-10.00;99.90;;;;;;2212943;64;20177;-37
2022/01/14 02:37:55;;;;;;;8.27;2.93;;;-10.10;99.90;;;;;;2209951;64;20089;-35
2022/01/14 02:40:22;;;;;;;4.83;1.77;;;-10.10;99.90;;;;;;2212936;64;20166;-35
2022/01/14 02:42:49;;;;;;;6.47;2.47;;;-10.10;99.90;;;;;;2213080;64;20162;-35
2022/01/14 02:45:16;;;;;;;8.93;3.63;;;-10.10;99.90;;;;;;2212906;64;20553;-34
2022/01/14 02:47:44;;;;;;;2.17;1.40;;;-10.10;99.90;;;;;;2213065;64;20592;-35
2022/01/14 02:50:15;;;;;;;6.50;3.43;;;-10.20;99.90;;;;;;2212828;64;20095;-36
2022/01/14 02:55:22;;;;;;;8.37;3.73;;;-10.30;99.90;;;;;;2212814;64;20199;-36
2022/01/14 02:57:52;;;;;;;9.67;3.20;;;-10.40;99.90;;;;;;2212948;64;20119;-47
2022/01/14 03:00:24;;;;;;;8.03;2.50;;;-10.40;99.90;;;;;;2216214;64;20101;-35
2022/01/14 03:02:51;;;;;;;7.30;3.17;;;-10.50;99.90;;;;;;2213016;64;20081;-36
2022/01/14 03:05:20;;;;;;;7.57;2.93;;;-10.50;99.90;;;;;;2212618;64;20081;-40
2022/01/14 03:07:47;;;;;;;6.87;2.87;;;-10.60;99.90;;;;;;2209582;64;20093;-37
2022/01/14 03:10:14;;;;;;;10.67;4.03;;;-10.60;99.90;;;;;;2212761;64;20174;-34
2022/01/14 03:12:42;;;;;;;15.77;3.13;;;-10.70;99.90;;;;;;2212816;64;20555;-36
2022/01/14 03:15:10;;;;;;;7.43;2.13;;;-10.70;99.90;;;;;;2202503;64;20565;-40
2022/01/14 03:17:40;;;;;;;7.97;3.17;;;-10.70;99.90;;;;;;2212931;64;20092;-36
2022/01/14 03:20:09;;;;;;;9.57;2.87;;;-10.70;99.90;;;;;;2212844;64;20097;-39
2022/01/14 03:22:36;;;;;;;9.10;3.40;;;-10.80;99.90;;;;;;2205792;64;20186;-41
2022/01/14 03:27:50;;;;;;;7.57;3.97;;;-10.90;99.90;;;;;;2216525;64;20586;-40
2022/01/14 03:30:16;;;;;;;6.43;2.73;;;-11.00;99.90;;;;;;2213487;64;20194;-42
2022/01/14 03:32:44;;;;;;;7.70;2.77;;;-11.00;99.90;;;;;;2216565;64;20488;-43
2022/01/14 03:35:11;;;;;;;9.43;3.60;;;-11.10;99.90;;;;;;2216722;64;20169;-47
2022/01/14 03:37:38;;;;;;;10.67;3.60;;;-11.10;99.90;;;;;;2216685;64;20548;-42
2022/01/14 03:40:06;;;;;;;5.33;2.03;;;-11.10;99.90;;;;;;2219942;64;20099;-38
2022/01/14 03:42:33;;;;;;;6.50;3.13;;;-11.20;99.90;;;;;;2213566;64;20169;-36
2022/01/14 03:45:00;;;;;;;5.10;2.27;;;-11.20;99.90;;;;;;2216771;64;20092;-33
2022/01/14 03:47:27;;;;;;;8.57;2.47;;;-11.20;99.90;;;;;;2217051;64;20093;-34
2022/01/14 03:49:56;;;;;;;12.13;3.10;;;-11.20;99.90;;;;;;2217212;64;20517;-38
2022/01/14 03:52:23;;;;;;;7.63;2.80;;;-11.20;99.90;;;;;;2209920;64;20096;-36
2022/01/14 03:54:50;;;;;;;8.93;3.00;;;-11.30;99.90;;;;;;2217507;64;20087;-37
2022/01/14 03:57:17;;;;;;;8.43;3.73;;;-11.20;99.90;;;;;;2217229;64;20596;-38
2022/01/14 03:59:46;;;;;;;10.63;5.07;;;-11.30;99.90;;;;;;2217133;64;20107;-37
2022/01/14 04:02:13;;;;;;;8.93;3.67;;;-11.30;99.90;;;;;;2217483;64;20545;-39
2022/01/14 04:04:40;;;;;;;8.23;2.83;;;-11.30;99.90;;;;;;2217341;64;20495;-35
2022/01/14 04:07:07;;;;;;;11.13;5.33;;;-11.30;99.90;;;;;;2220446;64;20088;-36
2022/01/14 04:09:36;;;;;;;11.93;4.03;;;-11.30;99.90;;;;;;2217113;64;20156;-36
2022/01/14 04:12:06;;;;;;;11.87;4.50;;;-11.30;99.90;;;;;;2217280;64;20092;-38
2022/01/14 04:17:02;;;;;;;14.43;4.30;;;-11.50;99.90;;;;;;2217053;64;20105;-35
2022/01/14 04:19:29;;;;;;;15.00;4.47;;;-11.60;99.90;;;;;;2217276;64;20449;-35
2022/01/14 04:21:56;;;;;;;6.97;2.70;;;-11.70;99.90;;;;;;2217198;64;20100;-36
2022/01/14 04:24:23;;;;;;;11.33;4.80;;;-11.80;99.90;;;;;;2217136;64;20108;-37
2022/01/14 04:26:50;;;;;;;9.27;4.43;;;-11.80;99.90;;;;;;2213537;64;20167;-35
2022/01/14 04:29:19;;;;;;;7.83;2.97;;;-11.90;99.90;;;;;;2212943;64;20637;-34
2022/01/14 04:31:47;;;;;;;6.70;2.97;;;-11.90;99.90;;;;;;2213190;64;20103;-35
2022/01/14 04:34:16;;;;;;;9.73;4.93;;;-11.90;99.90;;;;;;2213374;64;20166;-36
2022/01/14 04:36:43;;;;;;;9.60;3.90;;;-11.90;99.90;;;;;;2213053;64;20177;-35
2022/01/14 04:39:10;;;;;;;13.97;4.83;;;-11.90;99.90;;;;;;2213249;64;20528;-35
2022/01/14 04:41:37;;;;;;;7.93;4.10;;;-12.00;99.90;;;;;;2213301;64;20096;-37
2022/01/14 04:44:06;;;;;;;9.23;4.70;;;-12.00;99.90;;;;;;2206007;64;20111;-35
2022/01/14 04:49:09;;;;;;;12.03;4.10;;;-12.00;99.90;;;;;;2213506;64;20599;-36
2022/01/14 04:51:38;;;;;;;9.40;4.37;;;-12.00;99.90;;;;;;2213775;64;20100;-42
2022/01/14 04:54:04;;;;;;;10.97;5.57;;;-12.10;99.90;;;;;;2214027;64;20083;-39
2022/01/14 04:56:33;;;;;;;6.30;3.03;;;-12.10;99.90;;;;;;2213707;64;20630;-36
2022/01/14 04:58:59;;;;;;;11.30;5.70;;;-12.20;99.90;;;;;;2213487;64;20096;-41
2022/01/14 05:01:26;;;;;;;9.20;2.87;;;-12.20;99.90;;;;;;2214013;64;20111;-33
2022/01/14 05:03:55;;;;;;;9.70;3.23;;;-12.30;99.90;;;;;;2213992;64;20103;-36
2022/01/14 05:06:22;;;;;;;9.03;3.83;;;-12.30;99.90;;;;;;2213878;64;20580;-37
2022/01/14 05:08:49;;;;;;;12.47;4.80;;;-12.30;99.90;;;;;;2213728;64;20249;-35
2022/01/14 05:13:46;;;;;;;11.37;4.73;;;-12.40;99.90;;;;;;2214030;64;20107;-36
2022/01/14 05:16:12;;;;;;;8.33;3.67;;;-12.40;99.90;;;;;;2213924;64;20101;-36
2022/01/14 05:18:40;;;;;;;13.73;4.93;;;-12.40;99.90;;;;;;2217030;64;20548;-36
2022/01/14 05:21:07;;;;;;;10.07;5.50;;;-12.40;99.90;;;;;;2213915;64;20096;-37
2022/01/14 05:23:34;;;;;;;13.93;5.23;;;-12.50;99.90;;;;;;2213793;64;20126;-34
2022/01/14 05:26:01;;;;;;;9.00;4.23;;;-12.50;99.90;;;;;;2216343;64;20102;-34
2022/01/14 05:28:28;;;;;;;6.03;2.63;;;-12.60;99.90;;;;;;2217648;64;20728;-33
2022/01/14 05:30:55;;;;;;;13.10;6.23;;;-12.60;99.90;;;;;;2217714;64;20245;-34
2022/01/14 05:33:22;;;;;;;13.20;6.47;;;-12.60;99.90;;;;;;2217419;64;20188;-36
2022/01/14 05:35:48;;;;;;;17.70;5.67;;;-12.60;99.90;;;;;;2217652;64;20088;-37
2022/01/14 05:38:15;;;;;;;10.90;5.53;;;-12.60;99.90;;;;;;2217806;64;20453;-35
2022/01/14 05:40:42;;;;;;;12.37;6.07;;;-12.70;99.90;;;;;;2217495;64;20119;-34
2022/01/14 05:43:09;;;;;;;10.87;5.40;;;-12.70;99.90;;;;;;2217314;64;20173;-35
2022/01/14 05:45:36;;;;;;;10.40;5.37;;;-12.70;99.90;;;;;;2217677;64;20595;-34
2022/01/14 05:48:04;;;;;;;12.37;5.83;;;-12.70;99.90;;;;;;2217522;64;20088;-34
2022/01/14 05:50:31;;;;;;;11.07;6.33;;;-12.80;99.90;;;;;;2217568;64;20092;-36
2022/01/14 05:52:58;;;;;;;11.27;4.40;;;-12.80;99.90;;;;;;2217239;64;20157;-35
2022/01/14 05:55:25;;;;;;;7.93;3.80;;;-12.80;99.90;;;;;;2217198;64;20257;-36
2022/01/14 05:57:52;;;;;;;12.07;5.27;;;-12.80;99.90;;;;;;2217521;64;20089;-36
2022/01/14 06:00:20;;;;;;;15.30;6.87;;;-12.80;99.90;;;;;;2217683;64;20096;-46
2022/01/14 06:02:47;;;;;;;13.90;7.30;;;-12.90;99.90;;;;;;2217419;64;20142;-33
2022/01/14 06:05:14;;;;;;;11.27;4.77;;;-13.00;99.90;;;;;;2214564;64;20088;-36
2022/01/14 06:07:41;;;;;;;13.50;5.47;;;-13.00;99.90;;;;;;2214433;64;20076;-35
2022/01/14 06:10:09;;;;;;;19.33;6.27;;;-13.00;99.90;;;;;;2217442;64;20195;-35
2022/01/14 06:12:36;;;;;;;10.07;5.40;;;-13.10;99.90;;;;;;2217177;64;20096;-38
2022/01/14 06:15:03;;;;;;;12.53;4.83;;;-13.10;99.90;;;;;;2217232;64;20111;-36
2022/01/14 06:17:30;;;;;;;12.37;6.13;;;-13.10;99.90;;;;;;2217512;64;20084;-37
2022/01/14 06:19:57;;;;;;;17.13;5.37;;;-13.10;99.90;;;;;;2217585;64;20243;-35
2022/01/14 06:22:24;;;;;;;17.33;6.73;;;-13.10;99.90;;;;;;2217359;64;20099;-37
2022/01/14 06:24:51;;;;;;;9.97;4.87;;;-13.20;99.90;;;;;;2216886;64;20089;-38
2022/01/14 06:27:19;;;;;;;13.40;7.37;;;-13.10;99.90;;;;;;2213628;64;20595;-35
2022/01/14 06:29:46;;;;;;;13.63;3.53;;;-13.30;99.90;;;;;;2213678;64;20097;-33
2022/01/14 06:32:13;;;;;;;11.23;5.20;;;-13.30;99.90;;;;;;2213498;64;20445;-36
2022/01/14 06:34:40;;;;;;;12.13;5.03;;;-13.40;99.90;;;;;;2213498;64;20096;-35
2022/01/14 06:37:06;;;;;;;7.60;3.67;;;-13.40;99.90;;;;;;2213503;64;20104;-35
2022/01/14 06:39:33;;;;;;;16.53;6.20;;;-13.40;99.90;;;;;;2213357;64;20100;-40
2022/01/14 06:42:00;;;;;;;10.23;4.73;;;-13.40;99.90;;;;;;2210587;64;20091;-35
2022/01/14 06:44:27;;;;;;;7.97;4.57;;;-13.50;99.90;;;;;;2213545;64;20092;-35
2022/01/14 06:46:54;;;;;;;13.80;6.57;;;-13.50;99.90;;;;;;2213416;64;20116;-33
2022/01/14 06:49:21;;;;;;;15.33;6.87;;;-13.50;99.90;;;;;;2213532;64;20088;-36
2022/01/14 06:51:48;;;;;;;10.43;5.20;;;-13.50;99.90;;;;;;2213427;64;20108;-35
2022/01/14 06:54:14;;;;;;;10.70;4.63;;;-13.50;99.90;;;;;;2213624;64;20178;-37
2022/01/14 06:56:41;;;;;;;9.63;4.80;;;-13.40;99.90;;;;;;2213270;64;20174;-35
2022/01/14 06:59:09;;;;;;;11.17;4.80;;;-13.40;99.90;;;;;;2213534;64;20097;-35
2022/01/14 07:01:35;;;;;;;15.40;5.80;;;-13.40;99.90;;;;;;2210280;64;20093;-36
2022/01/14 07:04:03;;;;;;;13.47;6.57;;;-13.50;99.90;;;;;;2213436;64;20089;-37
2022/01/14 07:06:30;;;;;;;16.67;6.60;;;-13.50;99.90;;;;;;2216704;64;20084;-35
2022/01/14 07:08:57;;;;;;;10.30;5.57;;;-13.60;99.90;;;;;;2213550;64;20115;-33
2022/01/14 07:11:29;;;;;;;10.30;5.50;;;-13.60;99.90;;;;;;2213333;64;20103;-35
2022/01/14 07:13:56;;;;;;;11.80;5.30;;;-13.60;99.90;;;;;;2213524;64;20100;-36
2022/01/14 07:16:23;;;;;;;11.70;3.87;;;-13.50;99.90;;;;;;2213286;64;20096;-44
2022/01/14 07:18:50;;;;;;;12.93;7.50;;;-13.50;99.90;;;;;;2213483;64;20180;-36
2022/01/14 07:21:17;;;;;;;12.30;7.07;;;-13.50;99.90;;;;;;2213282;64;20096;-36
2022/01/14 07:23:44;;;;;;;12.87;7.70;;;-13.50;99.90;;;;;;2213546;64;20088;-35
2022/01/14 07:26:10;;;;;;;14.00;7.77;;;-13.50;99.90;;;;;;2216082;64;20106;-38
2022/01/14 07:28:37;;;;;;;12.97;6.53;;;-13.50;99.90;;;;;;2217405;64;20552;-38
2022/01/14 07:31:04;;;;;;;13.80;6.57;;;-13.50;99.90;;;;;;2217148;64;20084;-39
2022/01/14 07:33:31;;;;;;;14.40;6.17;;;-13.50;99.90;;;;;;2217212;64;20089;-34
2022/01/14 07:35:58;;;;;;;11.00;6.40;;;-13.50;99.90;;;;;;2213988;64;20514;-36
2022/01/14 07:38:25;;;;;;;10.13;6.20;;;-13.60;99.90;;;;;;2217186;64;20107;-42
2022/01/14 07:40:54;;;;;;;17.87;8.90;;;-13.60;99.90;;;;;;2217447;64;20644;-33
2022/01/14 07:43:23;;;;;;;11.17;5.03;;;-13.70;99.90;;;;;;2217196;64;20129;-35
2022/01/14 07:45:50;;;;;;;15.23;6.57;;;-13.70;99.90;;;;;;2217224;64;20128;-34
2022/01/14 07:48:17;;;;;;;13.03;6.03;;;-13.70;99.90;;;;;;2217114;64;20177;-36
2022/01/14 07:50:44;;;;;;;12.47;5.53;;;-13.80;99.90;;;;;;2213788;64;20180;-36
2022/01/14 07:53:11;;;;;;;17.97;6.93;;;-13.80;99.90;;;;;;2217368;64;20147;-37
2022/01/14 07:55:38;;;;;;;11.53;6.10;;;-13.80;99.90;;;;;;2217075;64;20339;-36
2022/01/14 07:58:04;;;;;;;14.70;5.10;;;-13.70;99.90;;;;;;2217232;64;20488;-34
2022/01/14 08:00:32;;;;;;;14.33;6.97;;;-13.60;99.90;;;;;;2217157;64;20552;-36
2022/01/14 08:02:59;;;;;;;11.13;4.07;;;-13.60;99.90;;;;;;2217173;64;20163;-37
2022/01/14 08:05:26;;;;;;;12.37;5.20;;;-13.50;99.90;;;;;;2217123;64;20599;-43
2022/01/14 08:07:55;;;;;;;11.60;6.47;;;-13.50;99.90;;;;;;2217298;64;20073;-35
2022/01/14 08:10:22;;;;;;;12.93;6.83;;;-13.50;99.90;;;;;;2217382;64;20527;-35
2022/01/14 08:12:50;;;;;;;10.90;6.33;;;-13.50;99.90;;;;;;2217104;64;20094;-34
2022/01/14 08:15:18;;;;;;;13.93;4.37;;;-13.60;99.90;;;;;;2217133;64;20121;-36
2022/01/14 08:17:45;;;;;;;14.87;6.67;;;-13.60;99.90;;;;;;2217122;64;20165;-37
2022/01/14 08:20:12;;;;;;;11.27;5.23;;;-13.60;99.90;;;;;;2216982;64;20103;-34
2022/01/14 08:22:39;;;;;;;12.70;6.23;;;-13.60;99.90;;;;;;2217240;64;20088;-37
2022/01/14 08:25:07;;;;;;;10.93;6.10;;;-13.60;99.90;;;;;;2215718;64;20089;-40
2022/01/14 08:27:33;;;;;;;11.60;5.10;;;-13.70;99.90;;;;;;2213248;64;20622;-35
2022/01/14 08:30:00;;;;;;;13.50;5.03;;;-13.60;99.90;;;;;;2213062;64;20176;-42
2022/01/14 08:32:27;;;;;;;19.30;5.83;;;-13.70;99.90;;;;;;2213558;64;20089;-47
2022/01/14 08:34:54;;;;;;;13.57;6.63;;;-13.70;99.90;;;;;;2214006;64;20089;-35
2022/01/14 08:37:21;;;;;;;12.63;5.80;;;-13.60;99.90;;;;;;2210713;64;20100;-34
2022/01/14 08:39:48;;;;;;;10.83;4.47;;;-13.70;99.90;;;;;;2213995;64;20188;-33
2022/01/14 08:42:15;;;;;;;13.47;7.23;;;-13.70;99.90;;;;;;2210773;64;20084;-35
2022/01/14 08:44:42;;;;;;;14.47;6.73;;;-13.80;99.90;;;;;;2210722;64;20158;-35
2022/01/14 08:47:09;;;;;;;13.30;6.73;;;-13.80;99.90;;;;;;2213962;64;20100;-35
2022/01/14 08:49:38;;;;;;;15.33;6.30;;;-13.80;99.90;;;;;;2216901;64;20104;-35
2022/01/14 08:52:05;;;;;;;11.57;5.97;;;-13.90;99.90;;;;;;2210701;64;20104;-33
2022/01/14 08:54:32;;;;;;;12.13;6.13;;;-13.80;99.90;;;;;;2213777;64;20556;-35
2022/01/14 08:56:59;;;;;;;8.37;4.20;;;-13.80;99.90;;;;;;2213866;64;20112;-36
2022/01/14 08:59:25;;;;;;;12.23;5.30;;;-13.80;99.90;;;;;;2213589;64;20089;-34
2022/01/14 09:01:52;;;;;;;9.03;4.30;;;-13.70;99.90;;;;;;2213998;64;20544;-35
2022/01/14 09:04:19;;;;;;;8.83;4.17;;;-13.70;99.90;;;;;;2213813;64;20093;-35
2022/01/14 09:06:46;;;;;;;18.83;6.80;;;-13.70;99.90;;;;;;2213850;64;20107;-33
2022/01/14 09:09:13;;;;;;;14.40;6.97;;;-13.80;99.90;;;;;;2217164;64;20100;-36
2022/01/14 09:11:41;;;;;;;11.47;4.37;;;-13.90;99.90;;;;;;2213832;64;20148;-39
2022/01/14 09:14:08;;;;;;;14.57;7.07;;;-13.80;99.90;;;;;;2210705;64;20242;-40
2022/01/14 09:16:35;;;;;;;14.60;7.03;;;-13.80;99.90;;;;;;2213650;64;20098;-37
2022/01/14 09:19:03;;;;;;;9.27;3.77;;;-13.70;99.90;;;;;;2213867;64;20122;-41
2022/01/14 09:21:29;;;;;;;14.77;6.97;;;-13.80;99.90;;;;;;2213820;64;20170;-40
2022/01/14 09:24:05;;;;;;;19.40;8.03;;;-13.70;99.90;;;;;;2214005;64;20472;-38
2022/01/14 09:26:33;;;;;;;12.27;6.53;;;-13.70;99.90;;;;;;2216907;64;20115;-36
2022/01/14 09:29:04;;;;;;;14.83;5.90;;;-13.80;99.90;;;;;;2217609;64;20096;-35
2022/01/14 09:31:31;;;;;;;12.67;5.23;;;-13.80;99.90;;;;;;2220845;64;20566;-37
2022/01/14 09:33:58;;;;;;;13.53;5.80;;;-13.70;99.90;;;;;;2217827;64;20092;-40
2022/01/14 09:36:25;;;;;;;20.00;7.10;;;-13.70;99.90;;;;;;2220732;64;20088;-43
2022/01/14 09:38:51;;;;;;;12.33;4.87;;;-13.70;99.90;;;;;;2217751;64;20092;-35
2022/01/14 09:41:19;;;;;;;17.27;7.73;;;-13.70;99.90;;;;;;2217442;64;20092;-38
2022/01/14 09:43:45;;;;;;;13.17;7.03;;;-13.80;99.90;;;;;;2217317;64;20092;-40
2022/01/14 09:46:12;;;;;;;22.77;8.13;;;-13.90;99.90;;;;;;2217744;64;20088;-38
2022/01/14 09:48:39;;;;;;;13.53;6.37;;;-13.90;99.90;;;;;;2217418;64;20528;-36
2022/01/14 09:51:06;;;;;;;15.83;7.63;;;-13.90;99.90;;;;;;2217460;64;20088;-34
2022/01/14 09:53:34;;;;;;;12.70;6.93;;;-14.00;99.90;;;;;;2217227;64;20088;-34
2022/01/14 09:56:02;;;;;;;18.67;7.53;;;-13.90;99.90;;;;;;2217731;64;20103;-37
2022/01/14 09:58:37;;;;;;;15.13;6.10;;;-13.90;99.90;;;;;;2216416;64;20092;-35
2022/01/14 10:01:11;;;;;;;15.20;6.20;;;-13.90;99.90;;;;;;2217436;64;20076;-34
2022/01/14 10:03:52;;;;;;;16.15;8.65;;;-13.90;99.90;;;;;;2217409;64;20080;-33
2022/01/14 10:06:39;;;;;;;15.10;7.13;;;-13.90;99.90;;;;;;2217437;64;20104;-36
2022/01/14 10:09:11;;;;;;;15.47;7.97;;;-13.90;99.90;;;;;;2217197;64;20438;-36
2022/01/14 10:11:40;;;;;;;14.77;5.60;;;-13.90;99.90;;;;;;2214257;64;20482;-37
2022/01/14 10:14:17;;;;;;;11.17;4.63;;;-13.90;99.90;;;;;;2217550;64;20165;-39
2022/01/14 10:16:45;;;;;;;16.73;8.00;;;-13.90;99.90;;;;;;2217150;64;20500;-39
2022/01/14 10:19:29;;;;;;;17.50;7.47;;;-13.90;99.90;;;;;;2217322;64;20245;-37
2022/01/14 10:21:56;;;;;;;12.87;6.77;;;-13.90;99.90;;;;;;2220624;64;20116;-35
2022/01/14 10:24:24;;;;;;;13.70;6.20;;;-13.90;99.90;;;;;;2217221;64;20169;-36
2022/01/14 10:26:56;;;;;;;12.03;5.97;;;-13.90;99.90;;;;;;2213369;64;20081;-38
2022/01/14 10:29:37;;;;;;;10.53;4.67;;;-13.80;99.90;;;;;;2213652;64;20096;-40
2022/01/14 10:32:06;;;;;;;15.33;6.23;;;-13.70;99.90;;;;;;2213526;64;20159;-45
2022/01/14 10:34:33;;;;;;;17.90;7.60;;;-13.70;99.90;;;;;;2213774;64;20173;-38
2022/01/14 10:37:14;;;;;;;19.10;8.03;;;-13.60;99.90;;;;;;2213609;64;20572;-34
2022/01/14 10:39:49;;;;;;;11.40;4.47;;;-13.60;99.90;;;;;;2213547;64;20081;-32
2022/01/14 10:42:30;;;;;;;15.93;8.53;;;-13.40;99.90;;;;;;2213589;64;20111;-39
2022/01/14 10:45:30;;;;;;;14.27;6.27;;;-13.40;99.90;;;;;;2213446;64;20131;-41
2022/01/14 10:48:31;;;;;;;12.77;6.33;;;-13.20;99.90;;;;;;2213322;64;20164;-40
2022/01/14 10:51:00;;;;;;;13.40;5.43;;;-13.30;99.90;;;;;;2216584;64;20598;-40
2022/01/14 10:53:35;;;;;;;12.43;6.23;;;-13.30;99.90;;;;;;2213648;64;20081;-38
2022/01/14 10:56:13;;;;;;;15.83;4.97;;;-13.40;99.90;;;;;;2213225;64;20104;-34
2022/01/14 10:58:44;;;;;;;12.90;5.57;;;-13.40;99.90;;;;;;2213360;64;20522;-36
2022/01/14 11:01:16;;;;;;;14.43;7.93;;;-13.40;99.90;;;;;;2200925;64;20093;-40
2022/01/14 11:03:52;;;;;;;14.87;6.67;;;-13.50;99.90;;;;;;2200778;64;20242;-38
2022/01/14 11:06:29;;;;;;;13.93;7.33;;;-13.50;99.90;;;;;;2200797;64;20098;-34
2022/01/14 11:09:04;;;;;;;11.83;6.47;;;-13.60;99.90;;;;;;2203917;64;20090;-34
2022/01/14 11:11:33;;;;;;;14.87;5.57;;;-13.60;99.90;;;;;;2204216;64;20090;-33
2022/01/14 11:14:00;;;;;;;18.40;8.27;;;-13.60;99.90;;;;;;2204088;64;20078;-34
2022/01/14 11:16:27;;;;;;;11.03;5.70;;;-13.60;99.90;;;;;;2203972;64;20482;-34
2022/01/14 11:18:57;;;;;;;13.43;7.03;;;-13.70;99.90;;;;;;2203775;64;20086;-36
2022/01/14 11:24:30;;;;;;;10.73;5.70;;;-13.70;99.90;;;;;;2200749;64;20487;-34
2022/01/14 11:27:08;;;;;;;18.20;7.60;;;-13.70;99.90;;;;;;2200869;64;20154;-36
2022/01/14 11:29:43;;;;;;;16.33;7.20;;;-13.70;99.90;;;;;;2200884;64;20512;-36
2022/01/14 11:32:12;;;;;;;14.17;7.37;;;-13.80;99.90;;;;;;2209355;64;20111;-42
2022/01/14 11:34:42;;;;;;;14.27;7.07;;;-13.70;99.90;;;;;;2213357;64;20088;-33
2022/01/14 11:37:34;;;;;;;9.67;4.37;;;-13.70;99.90;;;;;;2213652;64;20104;-34
2022/01/14 11:40:05;;;;;;;11.80;5.47;;;-13.60;99.90;;;;;;2213335;64;20088;-35
2022/01/14 11:42:46;;;;;;;12.63;6.90;;;-13.60;99.90;;;;;;2213155;64;20100;-34
2022/01/14 11:45:42;;;;;;;12.73;6.50;;;-13.60;99.90;;;;;;2213471;64;20088;-38
2022/01/14 11:48:28;;;;;;;13.47;6.13;;;-13.60;99.90;;;;;;2214544;64;20596;-36
2022/01/14 11:51:06;;;;;;;15.23;7.43;;;-13.60;99.90;;;;;;2210318;64;20135;-35
2022/01/14 11:53:45;;;;;;;14.30;7.37;;;-13.60;99.90;;;;;;2213436;64;20493;-33
2022/01/14 11:56:30;;;;;;;13.63;5.73;;;-13.60;99.90;;;;;;2213210;64;20100;-36
2022/01/14 11:59:22;;;;;;;20.80;6.87;;;-13.60;99.90;;;;;;2213323;64;20545;-33
2022/01/14 12:01:57;;;;;;;7.13;3.53;;;-13.70;99.90;;;;;;2213681;64;20100;-35
2022/01/14 12:04:44;;;;;;;17.53;6.67;;;-13.70;99.90;;;;;;2213280;64;20620;-39
2022/01/14 12:07:11;;;;;;;6.03;2.20;;;-13.70;99.90;;;;;;2209156;64;20565;-39
2022/01/14 12:09:58;;;;;;;18.20;7.17;;;-13.60;99.90;;;;;;2213831;64;20107;-35
2022/01/14 12:12:31;;;;;;;17.50;7.07;;;-13.60;99.90;;;;;;2214170;64;20092;-34
2022/01/14 12:15:01;;;;;;;13.33;6.90;;;-13.60;99.90;;;;;;2214031;64;20095;-33
2022/01/14 12:17:37;;;;;;;15.43;6.60;;;-13.70;99.90;;;;;;2213958;64;20126;-39
2022/01/14 12:20:11;;;;;;;13.67;6.83;;;-13.70;99.90;;;;;;2213928;64;20084;-39
2022/01/14 12:22:39;;;;;;;10.57;5.77;;;-13.70;99.90;;;;;;2214040;64;20119;-39
2022/01/14 12:25:06;;;;;;;11.23;4.67;;;-13.70;99.90;;;;;;2214327;64;20279;-39
2022/01/14 12:27:43;;;;;;;16.53;5.03;;;-13.70;99.90;;;;;;2217226;64;20103;-36
2022/01/14 12:30:11;;;;;;;9.33;4.60;;;-13.70;99.90;;;;;;2213801;64;20100;-39
2022/01/14 12:32:39;;;;;;;11.17;4.57;;;-13.70;99.90;;;;;;2213973;64;20089;-36
2022/01/14 12:35:09;;;;;;;6.60;2.67;;;-13.70;99.90;;;;;;2216931;64;20088;-34
2022/01/14 12:37:39;;;;;;;7.53;3.40;;;-13.60;99.90;;;;;;2210649;64;20565;-35
2022/01/14 12:40:12;;;;;;;13.03;4.67;;;-13.60;99.90;;;;;;2217118;64;20088;-33
2022/01/14 12:42:58;;;;;;;13.57;7.23;;;-13.60;99.90;;;;;;2214101;64;20554;-43
2022/01/14 12:45:34;;;;;;;11.60;4.73;;;-13.60;99.90;;;;;;2216716;64;20089;-33
2022/01/14 12:48:19;;;;;;;15.17;4.33;;;-13.60;99.90;;;;;;2208043;64;20116;-35
2022/01/14 12:50:46;;;;;;;;;;;-13.60;99.90;;;;;;2208276;64;20191;-36
2022/01/14 12:53:17;;;;;;;9.13;4.50;;;-13.60;99.90;;;;;;2208444;64;19961;-35
2022/01/14 12:55:44;;;;;;;15.40;5.03;;;-13.60;99.90;;;;;;2211309;64;20105;-36
2022/01/14 12:58:11;;;;;;;8.90;3.87;;;-13.60;99.90;;;;;;2208390;64;20097;-33
2022/01/14 13:00:39;;;;;;;13.47;5.77;;;-13.50;99.90;;;;;;2211761;64;20077;-35
2022/01/14 13:03:13;;;;;;;19.93;7.53;;;-13.60;99.90;;;;;;2211375;64;20174;-34
2022/01/14 13:05:39;;;;;;;12.13;3.53;;;-13.50;99.90;;;;;;2208440;64;20097;-39
2022/01/14 13:08:06;;;;;;;18.77;6.50;;;-13.50;99.90;;;;;;2208218;64;20081;-36
2022/01/14 13:10:35;;;;;;;10.33;5.37;;;-13.50;99.90;;;;;;2208447;64;20683;-36
2022/01/14 13:13:04;;;;;;;12.27;5.13;;;-13.50;99.90;;;;;;2208101;64;20100;-35
2022/01/14 13:15:33;;;;;;;11.90;5.60;;;-13.40;99.90;;;;;;2208071;64;20544;-35